createdAt,value
2018-07-26T00:00:41.006Z,598.6
2018-07-26T00:01:42.906Z,599.1
2018-07-26T00:02:45.089Z,598.6
2018-07-26T00:03:47.243Z,598.6
2018-07-26T00:04:49.691Z,598.4
2018-07-26T00:05:52.145Z,597.9
2018-07-26T00:06:54.318Z,598.1
2018-07-26T00:07:56.757Z,598.4
2018-07-26T00:08:58.939Z,598.6
2018-07-26T00:10:01.383Z,598.5
2018-07-26T00:11:03.837Z,598.4
2018-07-26T00:12:05.737Z,598.8
2018-07-26T00:13:08.184Z,598.8
2018-07-26T00:14:10.351Z,598.6
2018-07-26T00:15:12.802Z,598.6
2018-07-26T00:16:15.272Z,598.9
2018-07-26T00:17:17.445Z,598.6
2018-07-26T00:18:18.803Z,598.7
2018-07-26T00:19:21.249Z,598.7
2018-07-26T00:20:23.713Z,598.5
2018-07-26T00:21:25.903Z,598.8
2018-07-26T00:22:28.078Z,598.5
2018-07-26T00:23:29.977Z,598.4
2018-07-26T00:24:32.169Z,598.3
2018-07-26T00:25:34.598Z,598.5
2018-07-26T00:26:37.046Z,598.5
2018-07-26T00:27:39.508Z,598.5
2018-07-26T00:28:41.416Z,598.2
2018-07-26T00:29:43.316Z,598.2
2018-07-26T00:30:45.485Z,598.1
2018-07-26T00:31:47.655Z,598.2
2018-07-26T00:32:49.805Z,598.2
2018-07-26T00:33:52.263Z,598.2
2018-07-26T00:34:54.438Z,597.8
2018-07-26T00:35:56.336Z,598.1
2018-07-26T00:36:58.783Z,598.3
2018-07-26T00:38:01.234Z,598.2
2018-07-26T00:39:03.682Z,598
2018-07-26T00:40:05.857Z,597.8
2018-07-26T00:41:08.303Z,598.1
2018-07-26T00:42:09.944Z,598.1
2018-07-26T00:43:12.401Z,597.8
2018-07-26T00:44:14.575Z,597.8
2018-07-26T00:45:16.758Z,598.1
2018-07-26T00:46:18.929Z,597.6
2018-07-26T00:47:21.391Z,597.3
2018-07-26T00:48:23.840Z,597.6
2018-07-26T00:49:25.482Z,597.3
2018-07-26T00:50:27.923Z,597.3
2018-07-26T00:51:30.096Z,597
2018-07-26T00:52:32.548Z,597.3
2018-07-26T00:53:34.466Z,597.2
2018-07-26T00:54:36.911Z,597.1
2018-07-26T00:55:39.348Z,597.2
2018-07-26T00:56:41.529Z,596.9
2018-07-26T00:57:43.426Z,596.8
2018-07-26T00:58:45.881Z,597.1
2018-07-26T00:59:48.318Z,597.1
2018-07-26T01:00:50.494Z,597.3
2018-07-26T01:01:52.110Z,597.1
2018-07-26T01:02:54.553Z,597.1
2018-07-26T01:03:56.735Z,597.3
2018-07-26T01:04:59.183Z,597.5
2018-07-26T01:06:01.638Z,597.7
2018-07-26T01:07:04.082Z,597.6
2018-07-26T01:08:06.546Z,597.8
2018-07-26T01:09:08.998Z,597.8
2018-07-26T01:10:10.638Z,597.8
2018-07-26T01:11:12.547Z,597.6
2018-07-26T01:12:14.456Z,597.7
2018-07-26T01:13:16.635Z,597.6
2018-07-26T01:14:19.082Z,597.2
2018-07-26T01:15:20.989Z,597.4
2018-07-26T01:16:23.155Z,597.3
2018-07-26T01:17:25.614Z,597.2
2018-07-26T01:18:28.062Z,597.2
2018-07-26T01:19:29.696Z,597.5
2018-07-26T01:20:31.611Z,597.5
2018-07-26T01:21:33.803Z,597.3
2018-07-26T01:22:35.987Z,597.7
2018-07-26T01:23:37.860Z,597.6
2018-07-26T01:24:40.309Z,597.5
2018-07-26T01:25:42.766Z,597.5
2018-07-26T01:26:45.214Z,597.7
2018-07-26T01:27:47.138Z,598
2018-07-26T01:28:49.574Z,597.8
2018-07-26T01:29:51.498Z,598.3
2018-07-26T01:30:53.946Z,598
2018-07-26T01:31:56.396Z,597.9
2018-07-26T01:32:58.583Z,598
2018-07-26T01:34:01.027Z,598.2
2018-07-26T01:35:03.490Z,598.2
2018-07-26T01:36:05.937Z,598.6
2018-07-26T01:37:07.816Z,598.2
2018-07-26T01:38:10.258Z,598.2
2018-07-26T01:39:12.713Z,598.3
2018-07-26T01:40:15.157Z,598.5
2018-07-26T01:41:17.314Z,598.3
2018-07-26T01:42:19.764Z,598.4
2018-07-26T01:43:22.208Z,598.5
2018-07-26T01:44:24.377Z,598.6
2018-07-26T01:45:26.823Z,598.3
2018-07-26T01:46:28.971Z,598.6
2018-07-26T01:47:30.909Z,598.3
2018-07-26T01:48:32.840Z,598.8
2018-07-26T01:49:34.715Z,598.7
2018-07-26T01:50:36.593Z,598.9
2018-07-26T01:51:39.030Z,598.9
2018-07-26T01:52:40.938Z,599.1
2018-07-26T01:53:42.569Z,598.8
2018-07-26T01:54:44.735Z,599.2
2018-07-26T01:55:47.190Z,598.5
2018-07-26T01:56:49.075Z,599
2018-07-26T01:57:50.965Z,599.2
2018-07-26T01:58:53.130Z,599.5
2018-07-26T01:59:55.317Z,599.7
2018-07-26T02:00:57.753Z,599.7
2018-07-26T02:02:00.201Z,599.5
2018-07-26T02:03:02.369Z,599.8
2018-07-26T02:04:04.286Z,599.6
2018-07-26T02:05:06.455Z,600
2018-07-26T02:06:08.900Z,600.3
2018-07-26T02:07:11.340Z,600.3
2018-07-26T02:08:13.523Z,600.3
2018-07-26T02:09:15.967Z,600.3
2018-07-26T02:10:18.426Z,600.5
2018-07-26T02:11:20.870Z,600.4
2018-07-26T02:12:23.309Z,600.2
2018-07-26T02:13:25.475Z,600.1
2018-07-26T02:14:27.365Z,599.9
2018-07-26T02:15:29.286Z,600.3
2018-07-26T02:16:31.766Z,600.3
2018-07-26T02:17:34.231Z,600.2
2018-07-26T02:18:36.127Z,600.1
2018-07-26T02:19:38.313Z,600.3
2018-07-26T02:20:40.489Z,600.1
2018-07-26T02:21:42.664Z,599.9
2018-07-26T02:22:44.839Z,600.3
2018-07-26T02:23:47.284Z,600.2
2018-07-26T02:24:49.731Z,600.3
2018-07-26T02:25:52.185Z,600.1
2018-07-26T02:26:54.061Z,600.1
2018-07-26T02:27:56.242Z,600.5
2018-07-26T02:28:58.410Z,600.2
2018-07-26T02:30:00.856Z,600.4
2018-07-26T02:31:03.668Z,600.5
2018-07-26T02:32:05.537Z,600.1
2018-07-26T02:33:07.982Z,600.2
2018-07-26T02:34:09.869Z,600.3
2018-07-26T02:35:11.799Z,600.5
2018-07-26T02:36:13.958Z,600.3
2018-07-26T02:37:15.851Z,600.3
2018-07-26T02:38:17.469Z,600.5
2018-07-26T02:39:19.628Z,600.5
2018-07-26T02:40:21.821Z,600.6
2018-07-26T02:41:23.967Z,600.4
2018-07-26T02:42:25.872Z,600.8
2018-07-26T02:43:28.016Z,600.7
2018-07-26T02:44:30.185Z,600.4
2018-07-26T02:45:32.369Z,600.3
2018-07-26T02:46:34.551Z,600.3
2018-07-26T02:47:36.729Z,600.4
2018-07-26T02:48:38.900Z,600.4
2018-07-26T02:49:41.341Z,600.4
2018-07-26T02:50:43.796Z,600.1
2018-07-26T02:51:45.686Z,600.1
2018-07-26T02:52:48.133Z,599.9
2018-07-26T02:53:50.588Z,599.6
2018-07-26T02:54:53.033Z,599.5
2018-07-26T02:55:55.476Z,599.3
2018-07-26T02:56:57.669Z,599.6
2018-07-26T02:57:59.816Z,599.3
2018-07-26T02:59:02.266Z,599.3
2018-07-26T03:00:04.738Z,599.4
2018-07-26T03:01:06.907Z,599.5
2018-07-26T03:02:09.083Z,599.7
2018-07-26T03:03:11.266Z,599.7
2018-07-26T03:04:13.445Z,599.4
2018-07-26T03:05:15.356Z,599.6
2018-07-26T03:06:17.518Z,599.6
2018-07-26T03:07:19.765Z,599.7
2018-07-26T03:08:21.338Z,599.8
2018-07-26T03:09:23.775Z,599.9
2018-07-26T03:10:25.955Z,599.5
2018-07-26T03:11:28.408Z,599.8
2018-07-26T03:12:30.576Z,599.7
2018-07-26T03:13:33.027Z,600.1
2018-07-26T03:14:35.473Z,600.4
2018-07-26T03:15:37.617Z,600.2
2018-07-26T03:16:40.075Z,600
2018-07-26T03:17:42.527Z,599.5
2018-07-26T03:18:44.686Z,599.5
2018-07-26T03:19:46.843Z,599.6
2018-07-26T03:20:49.438Z,599.8
2018-07-26T03:21:51.606Z,599.5
2018-07-26T03:22:54.036Z,599.5
2018-07-26T03:23:56.485Z,599.7
2018-07-26T03:24:58.398Z,599.5
2018-07-26T03:26:00.532Z,599.1
2018-07-26T03:27:02.978Z,599.3
2018-07-26T03:28:05.428Z,599.5
2018-07-26T03:29:07.305Z,599.1
2018-07-26T03:30:09.479Z,599.7
2018-07-26T03:31:11.664Z,598.8
2018-07-26T03:32:14.114Z,599.1
2018-07-26T03:33:16.555Z,598.9
2018-07-26T03:34:18.450Z,598.7
2018-07-26T03:35:20.886Z,598.7
2018-07-26T03:36:22.796Z,598.7
2018-07-26T03:37:24.968Z,598.6
2018-07-26T03:38:27.465Z,598.9
2018-07-26T03:39:29.324Z,598.3
2018-07-26T03:40:31.766Z,598.5
2018-07-26T03:41:33.961Z,598.7
2018-07-26T03:42:36.400Z,598.7
2018-07-26T03:43:38.305Z,598.8
2018-07-26T03:44:40.354Z,598.6
2018-07-26T03:45:42.537Z,598.3
2018-07-26T03:46:44.695Z,598.5
2018-07-26T03:47:46.607Z,598.6
2018-07-26T03:48:49.044Z,598.4
2018-07-26T03:49:51.209Z,598.4
2018-07-26T03:50:53.690Z,598.4
2018-07-26T03:51:56.151Z,598.2
2018-07-26T03:52:58.326Z,598.2
2018-07-26T03:54:00.776Z,598.3
2018-07-26T03:55:02.667Z,598.2
2018-07-26T03:56:04.582Z,598.4
2018-07-26T03:57:06.498Z,598.2
2018-07-26T03:58:08.670Z,598.1
2018-07-26T03:59:11.134Z,598.2
2018-07-26T04:00:13.036Z,598.6
2018-07-26T04:01:14.959Z,598.1
2018-07-26T04:02:17.120Z,598.3
2018-07-26T04:03:19.529Z,598.3
2018-07-26T04:04:21.631Z,598.4
2018-07-26T04:05:24.159Z,598.1
2018-07-26T04:06:26.372Z,598
2018-07-26T04:07:28.297Z,598.2
2018-07-26T04:08:30.436Z,598.3
2018-07-26T04:09:32.594Z,598.3
2018-07-26T04:10:34.773Z,598.6
2018-07-26T04:11:37.211Z,598.6
2018-07-26T04:12:39.401Z,598.2
2018-07-26T04:13:41.033Z,598.1
2018-07-26T04:14:42.937Z,598.3
2018-07-26T04:15:45.128Z,598.3
2018-07-26T04:16:47.322Z,598.1
2018-07-26T04:17:49.493Z,597.9
2018-07-26T04:18:51.940Z,598.1
2018-07-26T04:19:54.389Z,598.2
2018-07-26T04:20:56.544Z,597.8
2018-07-26T04:21:58.721Z,597.9
2018-07-26T04:23:00.902Z,598.3
2018-07-26T04:24:03.347Z,598.1
2018-07-26T04:25:05.538Z,598.2
2018-07-26T04:26:07.943Z,598.1
2018-07-26T04:27:09.557Z,598
2018-07-26T04:28:11.739Z,598.4
2018-07-26T04:29:13.926Z,598.4
2018-07-26T04:30:16.368Z,598.3
2018-07-26T04:31:18.813Z,598.6
2018-07-26T04:32:21.259Z,598.4
2018-07-26T04:33:23.132Z,598.2
2018-07-26T04:34:25.017Z,598.6
2018-07-26T04:35:27.195Z,598.2
2018-07-26T04:36:29.091Z,598.1
2018-07-26T04:37:30.995Z,597.9
2018-07-26T04:38:32.875Z,598.1
2018-07-26T04:39:34.470Z,598
2018-07-26T04:40:36.626Z,597.9
2018-07-26T04:41:38.796Z,597.7
2018-07-26T04:42:40.960Z,597.6
2018-07-26T04:43:42.868Z,597.5
2018-07-26T04:44:45.318Z,597.6
2018-07-26T04:45:47.767Z,597.6
2018-07-26T04:46:49.926Z,597.5
2018-07-26T04:47:52.112Z,597.6
2018-07-26T04:48:54.034Z,597.4
2018-07-26T04:49:55.935Z,597.2
2018-07-26T04:50:58.119Z,597
2018-07-26T04:51:59.758Z,596.9
2018-07-26T04:53:02.212Z,597.1
2018-07-26T04:54:04.128Z,596.6
2018-07-26T04:55:06.290Z,597.1
2018-07-26T04:56:08.470Z,596.6
2018-07-26T04:57:10.368Z,596.7
2018-07-26T04:58:12.829Z,596.4
2018-07-26T04:59:15.317Z,596.8
2018-07-26T05:00:17.782Z,596.8
2018-07-26T05:01:19.695Z,596.9
2018-07-26T05:02:21.873Z,596.7
2018-07-26T05:03:24.321Z,596.7
2018-07-26T05:04:26.218Z,596.5
2018-07-26T05:05:28.665Z,596.8
2018-07-26T05:06:31.185Z,596.8
2018-07-26T05:07:33.675Z,596.9
2018-07-26T05:08:36.133Z,596.6
2018-07-26T05:09:38.296Z,596.8
2018-07-26T05:10:40.733Z,596.7
2018-07-26T05:11:42.921Z,596.4
2018-07-26T05:12:45.367Z,596.7
2018-07-26T05:13:47.259Z,596.7
2018-07-26T05:14:49.436Z,596.9
2018-07-26T05:15:51.640Z,596.3
2018-07-26T05:16:54.083Z,596.2
2018-07-26T05:17:56.273Z,596
2018-07-26T05:18:58.548Z,596
2018-07-26T05:20:00.638Z,595.7
2018-07-26T05:21:02.820Z,596
2018-07-26T05:22:04.973Z,595.6
2018-07-26T05:23:07.460Z,595.4
2018-07-26T05:24:09.919Z,595.7
2018-07-26T05:25:12.100Z,595.6
2018-07-26T05:26:14.546Z,595.1
2018-07-26T05:27:17.006Z,595.5
2018-07-26T05:28:19.213Z,595.6
2018-07-26T05:29:21.665Z,595.4
2018-07-26T05:30:23.828Z,595.7
2018-07-26T05:31:25.753Z,595.3
2018-07-26T05:32:28.193Z,595.6
2018-07-26T05:33:30.094Z,595.5
2018-07-26T05:34:32.560Z,595.7
2018-07-26T05:35:35.019Z,595.7
2018-07-26T05:36:37.481Z,595.3
2018-07-26T05:37:39.847Z,595.3
2018-07-26T05:38:42.000Z,595.3
2018-07-26T05:39:44.174Z,595
2018-07-26T05:40:46.351Z,595.2
2018-07-26T05:41:48.799Z,594.9
2018-07-26T05:42:50.712Z,595.1
2018-07-26T05:43:53.158Z,595.2
2018-07-26T05:44:55.609Z,595.1
2018-07-26T05:45:57.793Z,594.8
2018-07-26T05:46:59.968Z,594.8
2018-07-26T05:48:02.134Z,595.3
2018-07-26T05:49:04.020Z,595.3
2018-07-26T05:50:06.468Z,595
2018-07-26T05:51:08.914Z,594.7
2018-07-26T05:52:10.969Z,594.8
2018-07-26T05:53:13.267Z,594.5
2018-07-26T05:54:15.716Z,594.6
2018-07-26T05:55:17.901Z,594.9
2018-07-26T05:56:20.060Z,594.5
2018-07-26T05:57:21.709Z,594.4
2018-07-26T05:58:23.920Z,594.2
2018-07-26T05:59:25.821Z,594.1
2018-07-26T06:00:28.279Z,593.9
2018-07-26T06:01:30.437Z,593.8
2018-07-26T06:02:32.615Z,593.7
2018-07-26T06:03:34.799Z,593.8
2018-07-26T06:04:36.983Z,593.8
2018-07-26T06:05:39.437Z,593.8
2018-07-26T06:06:41.616Z,593.9
2018-07-26T06:07:43.772Z,594
2018-07-26T06:08:46.222Z,594.1
2018-07-26T06:09:48.664Z,594.1
2018-07-26T06:10:51.111Z,593.7
2018-07-26T06:11:53.273Z,593.7
2018-07-26T06:12:55.705Z,593.9
2018-07-26T06:13:57.868Z,593.8
2018-07-26T06:15:00.321Z,593.7
2018-07-26T06:16:02.795Z,593.3
2018-07-26T06:17:04.769Z,593.9
2018-07-26T06:18:06.696Z,593.6
2018-07-26T06:19:09.137Z,593.5
2018-07-26T06:20:11.579Z,593.3
2018-07-26T06:21:13.759Z,593.4
2018-07-26T06:22:15.929Z,593.2
2018-07-26T06:23:18.093Z,593.3
2018-07-26T06:24:20.265Z,593.1
2018-07-26T06:25:22.456Z,593.2
2018-07-26T06:26:24.623Z,593.5
2018-07-26T06:27:26.773Z,593.6
2018-07-26T06:28:28.688Z,593.4
2018-07-26T06:29:30.878Z,593.2
2018-07-26T06:30:33.320Z,593.5
2018-07-26T06:31:35.774Z,593.5
2018-07-26T06:32:37.934Z,593.6
2018-07-26T06:33:41.033Z,593.6
2018-07-26T06:34:42.938Z,593.6
2018-07-26T06:35:44.842Z,593.5
2018-07-26T06:36:46.437Z,593.5
2018-07-26T06:37:48.891Z,593.2
2018-07-26T06:38:51.347Z,593.3
2018-07-26T06:39:53.543Z,593.9
2018-07-26T06:40:55.721Z,593.5
2018-07-26T06:41:58.174Z,593.7
2018-07-26T06:43:00.627Z,593.8
2018-07-26T06:44:02.787Z,593.8
2018-07-26T06:45:05.237Z,593.5
2018-07-26T06:46:07.405Z,593.4
2018-07-26T06:47:09.757Z,593.4
2018-07-26T06:48:11.882Z,593.2
2018-07-26T06:49:14.066Z,593.5
2018-07-26T06:50:15.980Z,593.2
2018-07-26T06:51:18.146Z,593.3
2018-07-26T06:52:20.601Z,593.2
2018-07-26T06:53:22.768Z,593.4
2018-07-26T06:54:25.245Z,593.2
2018-07-26T06:55:27.688Z,593.4
2018-07-26T06:56:29.878Z,593.3
2018-07-26T06:57:31.500Z,593.2
2018-07-26T06:58:33.950Z,593.2
2018-07-26T06:59:36.399Z,593.5
2018-07-26T07:00:38.552Z,593.2
2018-07-26T07:01:40.733Z,593.3
2018-07-26T07:02:43.191Z,593.6
2018-07-26T07:03:45.641Z,593.3
2018-07-26T07:04:47.822Z,593
2018-07-26T07:05:50.267Z,593.3
2018-07-26T07:06:52.444Z,593.1
2018-07-26T07:07:54.341Z,593.4
2018-07-26T07:08:56.527Z,593.6
2018-07-26T07:09:58.712Z,593.5
2018-07-26T07:11:00.890Z,593.3
2018-07-26T07:12:02.797Z,593.3
2018-07-26T07:13:04.980Z,593.5
2018-07-26T07:14:07.151Z,593.3
2018-07-26T07:15:09.596Z,593.4
2018-07-26T07:16:11.779Z,593.4
2018-07-26T07:17:13.958Z,593
2018-07-26T07:18:16.134Z,593.2
2018-07-26T07:19:18.307Z,592.9
2018-07-26T07:20:20.207Z,593
2018-07-26T07:21:22.375Z,593
2018-07-26T07:22:24.557Z,593.2
2018-07-26T07:23:27.063Z,592.5
2018-07-26T07:24:28.685Z,593.3
2018-07-26T07:25:31.139Z,592.6
2018-07-26T07:26:33.598Z,592.9
2018-07-26T07:27:36.060Z,593
2018-07-26T07:28:38.235Z,592.6
2018-07-26T07:29:40.685Z,592.8
2018-07-26T07:30:43.137Z,592.8
2018-07-26T07:31:45.587Z,593
2018-07-26T07:32:47.756Z,592.9
2018-07-26T07:33:50.207Z,593
2018-07-26T07:34:52.392Z,593
2018-07-26T07:35:54.594Z,592.5
2018-07-26T07:36:57.020Z,592.9
2018-07-26T07:37:59.468Z,593.2
2018-07-26T07:39:01.635Z,593.3
2018-07-26T07:40:03.544Z,593
2018-07-26T07:41:05.717Z,593.5
2018-07-26T07:42:08.162Z,593.2
2018-07-26T07:43:10.078Z,593.3
2018-07-26T07:44:11.989Z,593.3
2018-07-26T07:45:13.880Z,593.2
2018-07-26T07:46:15.784Z,593.2
2018-07-26T07:47:18.661Z,593.4
2018-07-26T07:48:20.842Z,593.6
2018-07-26T07:49:23.319Z,593.3
2018-07-26T07:50:25.500Z,593.3
2018-07-26T07:51:27.678Z,593.4
2018-07-26T07:52:29.867Z,593.6
2018-07-26T07:53:32.010Z,593.4
2018-07-26T07:54:34.164Z,593
2018-07-26T07:55:36.623Z,593.4
2018-07-26T07:56:38.809Z,593.2
2018-07-26T07:57:41.264Z,593.3
2018-07-26T07:58:43.165Z,593.1
2018-07-26T07:59:45.542Z,593.2
2018-07-26T08:00:47.990Z,593.1
2018-07-26T08:01:50.164Z,593.3
2018-07-26T08:02:52.613Z,593.5
2018-07-26T08:03:55.082Z,593.2
2018-07-26T08:04:57.247Z,593.8
2018-07-26T08:05:59.435Z,593.2
2018-07-26T08:07:01.880Z,593.3
2018-07-26T08:08:03.786Z,593.4
2018-07-26T08:09:06.233Z,593.3
2018-07-26T08:10:08.141Z,593.7
2018-07-26T08:11:10.089Z,593.6
2018-07-26T08:12:12.545Z,593.7
2018-07-26T08:13:14.729Z,593.6
2018-07-26T08:14:17.187Z,593.4
2018-07-26T08:15:19.360Z,593.2
2018-07-26T08:16:21.801Z,593.5
2018-07-26T08:17:23.969Z,593.1
2018-07-26T08:18:26.138Z,593.5
2018-07-26T08:19:28.329Z,593.3
2018-07-26T08:20:30.779Z,593.3
2018-07-26T08:21:32.965Z,593.4
2018-07-26T08:22:35.419Z,593.6
2018-07-26T08:23:37.861Z,593.4
2018-07-26T08:24:40.029Z,593.7
2018-07-26T08:25:42.212Z,593.8
2018-07-26T08:26:44.140Z,593.3
2018-07-26T08:27:46.367Z,593.3
2018-07-26T08:28:48.832Z,593.4
2018-07-26T08:29:51.287Z,593.4
2018-07-26T08:30:53.730Z,593.3
2018-07-26T08:31:55.593Z,593.1
2018-07-26T08:32:58.047Z,593.5
2018-07-26T08:33:59.979Z,593
2018-07-26T08:35:02.615Z,593.1
2018-07-26T08:36:05.055Z,593.4
2018-07-26T08:37:07.507Z,593.2
2018-07-26T08:38:09.660Z,593.4
2018-07-26T08:39:11.832Z,593.4
2018-07-26T08:40:13.977Z,593.2
2018-07-26T08:41:16.156Z,592.8
2018-07-26T08:42:18.332Z,592.9
2018-07-26T08:43:20.520Z,593
2018-07-26T08:44:22.391Z,593.1
2018-07-26T08:45:24.860Z,592.8
2018-07-26T08:46:27.317Z,593.1
2018-07-26T08:47:29.769Z,592.4
2018-07-26T08:48:32.222Z,593.1
2018-07-26T08:49:34.672Z,592.8
2018-07-26T08:50:36.842Z,592.7
2018-07-26T08:51:39.039Z,592.8
2018-07-26T08:52:41.486Z,592.8
2018-07-26T08:53:43.639Z,592.1
2018-07-26T08:54:45.554Z,592.9
2018-07-26T08:55:47.720Z,592.5
2018-07-26T08:56:49.919Z,592.6
2018-07-26T08:57:52.378Z,592.7
2018-07-26T08:58:54.825Z,593
2018-07-26T08:59:56.436Z,592.7
2018-07-26T09:00:58.906Z,593.1
2018-07-26T09:02:01.336Z,593.3
2018-07-26T09:03:03.796Z,593.2
2018-07-26T09:04:05.975Z,593.1
2018-07-26T09:05:08.164Z,592.8
2018-07-26T09:06:10.617Z,593.5
2018-07-26T09:07:12.808Z,592.9
2018-07-26T09:08:14.992Z,593
2018-07-26T09:09:17.177Z,592.6
2018-07-26T09:10:19.629Z,592.7
2018-07-26T09:11:21.814Z,592.6
2018-07-26T09:12:24.256Z,592.7
2018-07-26T09:13:27.004Z,592.7
2018-07-26T09:14:29.072Z,593
2018-07-26T09:15:31.520Z,592.9
2018-07-26T09:16:33.971Z,593.3
2018-07-26T09:17:36.434Z,593
2018-07-26T09:18:38.309Z,592.7
2018-07-26T09:19:41.059Z,592.7
2018-07-26T09:20:42.669Z,592.5
2018-07-26T09:21:44.587Z,592.7
2018-07-26T09:22:46.760Z,592.6
2018-07-26T09:23:49.213Z,592.5
2018-07-26T09:24:51.678Z,592.7
2018-07-26T09:25:53.859Z,592.6
2018-07-26T09:26:55.480Z,593
2018-07-26T09:27:57.677Z,593.2
2018-07-26T09:28:59.933Z,592.7
2018-07-26T09:30:02.159Z,592.7
2018-07-26T09:31:04.342Z,592.4
2018-07-26T09:32:06.232Z,593
2018-07-26T09:33:08.208Z,592.7
2018-07-26T09:34:10.653Z,592.8
2018-07-26T09:35:12.837Z,593.1
2018-07-26T09:36:15.289Z,593.2
2018-07-26T09:37:17.460Z,593.5
2018-07-26T09:38:19.339Z,593.4
2018-07-26T09:39:21.507Z,593.7
2018-07-26T09:40:23.673Z,593.9
2018-07-26T09:41:26.129Z,593.7
2018-07-26T09:42:28.589Z,593.5
2018-07-26T09:43:31.049Z,593.8
2018-07-26T09:44:32.947Z,593.7
2018-07-26T09:45:35.107Z,593.4
2018-07-26T09:46:37.568Z,593.8
2018-07-26T09:47:39.483Z,594.2
2018-07-26T09:48:41.657Z,593.5
2018-07-26T09:49:44.402Z,593.6
2018-07-26T09:50:46.624Z,593.9
2018-07-26T09:51:48.536Z,593.4
2018-07-26T09:52:50.716Z,593.1
2018-07-26T09:53:52.635Z,593.7
2018-07-26T09:54:55.288Z,593.6
2018-07-26T09:55:57.739Z,593.6
2018-07-26T09:56:59.919Z,593.6
2018-07-26T09:58:02.372Z,593.6
2018-07-26T09:59:04.544Z,593.9
2018-07-26T10:00:06.707Z,593.8
2018-07-26T10:01:08.621Z,594.1
2018-07-26T10:02:10.552Z,593.8
2018-07-26T10:03:12.507Z,593.9
2018-07-26T10:04:14.968Z,593.8
2018-07-26T10:05:17.430Z,594.1
2018-07-26T10:06:19.890Z,594.3
2018-07-26T10:07:22.128Z,594.4
2018-07-26T10:08:24.299Z,594.5
2018-07-26T10:09:26.794Z,594.8
2018-07-26T10:10:29.294Z,594.9
2018-07-26T10:11:31.207Z,594.8
2018-07-26T10:12:33.119Z,594.6
2018-07-26T10:13:35.025Z,595.1
2018-07-26T10:14:37.200Z,595.5
2018-07-26T10:15:39.071Z,594.7
2018-07-26T10:16:41.520Z,595.3
2018-07-26T10:17:43.983Z,595.2
2018-07-26T10:18:46.169Z,595.2
2018-07-26T10:19:48.077Z,594.7
2018-07-26T10:20:50.250Z,595.2
2018-07-26T10:21:52.704Z,594.9
2018-07-26T10:22:54.873Z,595.3
2018-07-26T10:23:57.318Z,595.3
2018-07-26T10:24:59.769Z,595.6
2018-07-26T10:26:01.963Z,595.6
2018-07-26T10:27:04.388Z,595.2
2018-07-26T10:28:06.317Z,595.3
2018-07-26T10:29:08.761Z,595.7
2018-07-26T10:30:10.899Z,595.4
2018-07-26T10:31:13.059Z,595.4
2018-07-26T10:32:15.225Z,595.4
2018-07-26T10:33:17.108Z,595.4
2018-07-26T10:34:19.294Z,595.2
2018-07-26T10:35:20.936Z,595.2
2018-07-26T10:36:23.119Z,595.5
2018-07-26T10:37:25.037Z,595.5
2018-07-26T10:38:27.235Z,595.2
2018-07-26T10:39:29.690Z,595.7
2018-07-26T10:40:31.578Z,595.5
2018-07-26T10:41:34.034Z,595.5
2018-07-26T10:42:35.670Z,595.9
2018-07-26T10:43:38.127Z,595.7
2018-07-26T10:44:40.258Z,595.7
2018-07-26T10:45:42.177Z,595.8
2018-07-26T10:46:44.626Z,595.8
2018-07-26T10:47:46.798Z,596.1
2018-07-26T10:48:48.985Z,595.7
2018-07-26T10:49:51.568Z,595.7
2018-07-26T10:50:53.418Z,596
2018-07-26T10:51:55.866Z,595.9
2018-07-26T10:52:58.049Z,595.7
2018-07-26T10:54:00.507Z,595.8
2018-07-26T10:55:02.682Z,595.9
2018-07-26T10:56:05.142Z,595.6
2018-07-26T10:57:07.316Z,595.7
2018-07-26T10:58:09.499Z,595.7
2018-07-26T10:59:11.949Z,595.6
2018-07-26T11:00:13.999Z,595.6
2018-07-26T11:01:15.844Z,596
2018-07-26T11:02:17.726Z,596.1
2018-07-26T11:03:19.630Z,596
2018-07-26T11:04:22.071Z,596
2018-07-26T11:05:23.984Z,595.5
2018-07-26T11:06:25.879Z,595.9
2018-07-26T11:07:28.061Z,596.2
2018-07-26T11:08:30.521Z,595.9
2018-07-26T11:09:33.116Z,596.2
2018-07-26T11:10:35.081Z,596
2018-07-26T11:11:37.276Z,596.4
2018-07-26T11:12:39.205Z,597.1
2018-07-26T11:13:41.378Z,596.7
2018-07-26T11:14:43.535Z,596.5
2018-07-26T11:15:45.431Z,596.3
2018-07-26T11:16:47.881Z,596.4
2018-07-26T11:17:50.323Z,596.6
2018-07-26T11:18:52.232Z,596.4
2018-07-26T11:19:54.693Z,596.9
2018-07-26T11:20:57.145Z,597
2018-07-26T11:21:59.604Z,597
2018-07-26T11:23:02.058Z,597.4
2018-07-26T11:24:04.513Z,597
2018-07-26T11:25:06.957Z,597.2
2018-07-26T11:26:09.142Z,596.6
2018-07-26T11:27:10.864Z,597
2018-07-26T11:28:13.309Z,597.2
2018-07-26T11:29:15.772Z,597.2
2018-07-26T11:30:17.951Z,597.3
2018-07-26T11:31:20.398Z,597
2018-07-26T11:32:23.007Z,597.1
2018-07-26T11:33:25.452Z,597.1
2018-07-26T11:34:27.898Z,596.8
2018-07-26T11:35:30.346Z,596.9
2018-07-26T11:36:32.280Z,597.6
2018-07-26T11:37:34.204Z,597
2018-07-26T11:38:36.648Z,597.8
2018-07-26T11:39:39.088Z,597.3
2018-07-26T11:40:41.272Z,597.6
2018-07-26T11:41:43.392Z,597.1
2018-07-26T11:42:45.838Z,597.7
2018-07-26T11:43:48.362Z,596.9
2018-07-26T11:44:50.085Z,596.9
2018-07-26T11:45:52.526Z,597.2
2018-07-26T11:46:54.695Z,597.6
2018-07-26T11:47:56.609Z,597.6
2018-07-26T11:48:59.069Z,597.6
2018-07-26T11:50:01.698Z,598
2018-07-26T11:51:03.935Z,597.6
2018-07-26T11:52:06.127Z,597.8
2018-07-26T11:53:08.048Z,597.9
2018-07-26T11:54:10.232Z,597.9
2018-07-26T11:55:12.421Z,598.1
2018-07-26T11:56:14.589Z,598
2018-07-26T11:57:16.782Z,598
2018-07-26T11:58:18.686Z,598.3
2018-07-26T11:59:21.188Z,598.5
2018-07-26T12:00:23.416Z,598.2
2018-07-26T12:01:25.905Z,597.5
2018-07-26T12:02:28.769Z,598.1
2018-07-26T12:03:31.029Z,598.2
2018-07-26T12:04:33.209Z,598.3
2018-07-26T12:05:35.390Z,598.4
2018-07-26T12:06:37.293Z,598.8
2018-07-26T12:07:39.468Z,598.5
2018-07-26T12:08:41.919Z,598.7
2018-07-26T12:09:44.074Z,598.8
2018-07-26T12:10:46.529Z,598.8
2018-07-26T12:11:48.696Z,598.9
2018-07-26T12:12:50.880Z,599.3
2018-07-26T12:13:53.327Z,599.1
2018-07-26T12:14:55.782Z,598.7
2018-07-26T12:15:57.959Z,598.6
2018-07-26T12:17:00.398Z,599
2018-07-26T12:18:02.857Z,599.2
2018-07-26T12:19:05.298Z,599.3
2018-07-26T12:20:07.746Z,599.1
2018-07-26T12:21:10.194Z,599.2
2018-07-26T12:22:12.367Z,599.1
2018-07-26T12:23:14.988Z,599
2018-07-26T12:24:17.432Z,599.1
2018-07-26T12:25:19.576Z,598.7
2018-07-26T12:26:21.732Z,599.4
2018-07-26T12:27:23.895Z,599.9
2018-07-26T12:28:26.361Z,600.2
2018-07-26T12:29:28.810Z,600.6
2018-07-26T12:30:30.993Z,599.9
2018-07-26T12:31:33.440Z,599.7
2018-07-26T12:32:35.887Z,600.1
2018-07-26T12:33:37.787Z,599.8
2018-07-26T12:34:40.251Z,600
2018-07-26T12:35:42.210Z,600.1
2018-07-26T12:36:44.388Z,600.6
2018-07-26T12:37:45.989Z,600.5
2018-07-26T12:38:48.439Z,600.8
2018-07-26T12:39:50.897Z,600.4
2018-07-26T12:40:53.070Z,600.3
2018-07-26T12:41:55.537Z,599.5
2018-07-26T12:42:57.729Z,600
2018-07-26T12:44:00.173Z,600.3
2018-07-26T12:45:02.336Z,600.1
2018-07-26T12:46:04.220Z,600.4
2018-07-26T12:47:06.670Z,600.4
2018-07-26T12:48:09.109Z,600.8
2018-07-26T12:49:11.300Z,601.3
2018-07-26T12:50:13.742Z,601.3
2018-07-26T12:51:15.629Z,601.6
2018-07-26T12:52:17.812Z,601.1
2018-07-26T12:53:20.285Z,601.4
2018-07-26T12:54:22.739Z,601.1
2018-07-26T12:55:25.196Z,600.7
2018-07-26T12:56:27.634Z,601.2
2018-07-26T12:57:30.083Z,601.5
2018-07-26T12:58:31.724Z,601.3
2018-07-26T12:59:33.917Z,601.2
2018-07-26T13:00:36.370Z,601.2
2018-07-26T13:01:39.066Z,601.2
2018-07-26T13:02:41.542Z,601.5
2018-07-26T13:03:43.717Z,601.4
2018-07-26T13:04:46.179Z,601.3
2018-07-26T13:05:48.339Z,601.3
2018-07-26T13:06:50.796Z,601
2018-07-26T13:07:53.244Z,601.4
2018-07-26T13:08:55.433Z,601.6
2018-07-26T13:09:57.587Z,601.9
2018-07-26T13:10:59.767Z,602.1
2018-07-26T13:12:02.215Z,602
2018-07-26T13:13:04.671Z,601.8
2018-07-26T13:14:06.864Z,602.3
2018-07-26T13:15:09.310Z,602.2
2018-07-26T13:16:11.177Z,602
2018-07-26T13:17:13.069Z,602.2
2018-07-26T13:18:15.238Z,602.7
2018-07-26T13:19:17.697Z,602.3
2018-07-26T13:20:20.145Z,602.6
2018-07-26T13:21:22.038Z,602.8
2018-07-26T13:22:24.212Z,603
2018-07-26T13:23:26.413Z,602.5
2018-07-26T13:24:28.856Z,602.9
2018-07-26T13:25:31.048Z,602.8